Time;durP1;ratioP1;P1;durP2;ratioP2;P2;SDS_P1;SDS_P2;PMS_P1;PMS_P2;Temp;Humidity;BMP_temperature;BMP_pressure;BME280_temperature;BME280_humidity;BME280_pressure;Samples;Min_cycle;Max_cycle;Signal;HPM_P1;HPM_P2
2023/08/08 00:01:24;;;;;;;21.08;20.27;;;;;;;-141.02;100.00;107971.50;5134234;27;20192;-65
2023/08/08 00:03:51;;;;;;;21.30;20.50;;;;;;;-141.02;100.00;107971.50;5134254;27;20216;-66
2023/08/08 00:06:18;;;;;;;21.50;20.70;;;;;;;-141.02;100.00;107971.50;5134415;27;20218;-59
2023/08/08 00:08:45;;;;;;;20.42;19.65;;;;;;;-141.02;100.00;107971.50;5134444;27;20239;-66
2023/08/08 00:11:13;;;;;;;20.30;19.60;;;;;;;-141.02;100.00;107971.50;5134088;27;20694;-61
2023/08/08 00:13:40;;;;;;;19.20;18.50;;;;;;;-141.02;100.00;107971.50;5134001;27;20192;-60
2023/08/08 00:16:07;;;;;;;19.20;18.50;;;;;;;-141.02;100.00;107971.50;5134309;27;20618;-59
2023/08/08 00:18:34;;;;;;;19.35;18.65;;;;;;;-141.02;100.00;107971.50;5134011;27;20197;-60
2023/08/08 00:21:01;;;;;;;18.40;17.80;;;;;;;-141.02;100.00;107971.50;5133776;27;20608;-66
2023/08/08 00:23:28;;;;;;;17.65;17.05;;;;;;;-141.02;100.00;107971.50;5133382;27;20188;-59
2023/08/08 00:25:55;;;;;;;16.65;16.15;;;;;;;-141.02;100.00;107971.50;5133761;27;20287;-66
2023/08/08 00:28:24;;;;;;;17.88;17.27;;;;;;;-141.02;100.00;107971.50;5134064;27;20228;-62
2023/08/08 00:30:51;;;;;;;18.58;17.98;;;;;;;-141.02;100.00;107971.50;5133594;27;20547;-66
2023/08/08 00:33:18;;;;;;;17.80;17.20;;;;;;;-141.02;100.00;107971.50;5133960;27;20192;-60
2023/08/08 00:35:49;;;;;;;17.85;17.25;;;;;;;-141.02;100.00;107971.50;5133601;27;20283;-61
2023/08/08 00:38:18;;;;;;;15.90;15.40;;;;;;;-141.02;100.00;107971.50;5133503;27;20192;-64
2023/08/08 00:40:45;;;;;;;19.45;18.75;;;;;;;-141.02;100.00;107971.50;5133802;27;20237;-65
2023/08/08 00:43:12;;;;;;;19.80;19.10;;;;;;;-141.02;100.00;107971.50;5133719;27;20192;-58
2023/08/08 00:45:43;;;;;;;20.65;19.85;;;;;;;-141.02;100.00;107971.50;5133458;27;20283;-65
2023/08/08 00:48:11;;;;;;;20.08;19.38;;;;;;;-141.02;100.00;107971.50;5133363;27;20188;-59
2023/08/08 00:50:38;;;;;;;19.95;19.25;;;;;;;-141.02;100.00;107971.50;5133688;27;20228;-65
2023/08/08 00:53:06;;;;;;;19.90;19.20;;;;;;;-141.02;100.00;107971.50;5133294;27;20279;-68
2023/08/08 00:55:33;;;;;;;21.50;20.70;;;;;;;-141.02;100.00;107971.50;5133357;27;20196;-60
2023/08/08 00:58:00;;;;;;;22.10;21.30;;;;;;;-141.02;100.00;107971.50;5133266;27;20204;-65
2023/08/08 01:00:27;;;;;;;22.08;21.27;;;;;;;-141.02;100.00;107971.50;5133421;27;20220;-66
2023/08/08 01:02:59;;;;;;;20.52;19.77;;;;;;;-141.02;100.00;107971.50;5133208;27;20674;-67
2023/08/08 01:05:34;;;;;;;19.45;18.75;;;;;;;-141.02;100.00;107971.50;5133449;27;20206;-66
2023/08/08 01:08:06;;;;;;;19.25;18.55;;;;;;;-141.02;100.00;107971.50;5133236;27;20214;-58
2023/08/08 01:10:36;;;;;;;20.48;19.75;;;;;;;-141.02;100.00;107971.50;5133410;27;20573;-60
2023/08/08 01:13:06;;;;;;;19.95;19.25;;;;;;;-141.02;100.00;107971.50;5133443;27;20184;-58
2023/08/08 01:15:35;;;;;;;20.55;19.80;;;;;;;-141.02;100.00;107971.50;5133228;27;20628;-59
2023/08/08 01:18:10;;;;;;;21.30;20.50;;;;;;;-141.02;100.00;107971.50;5133393;27;20196;-65
2023/08/08 01:20:42;;;;;;;21.13;20.33;;;;;;;-141.02;100.00;107971.50;5132514;27;20743;-66
2023/08/08 01:23:15;;;;;;;18.30;17.70;;;;;;;-141.02;100.00;107971.50;5132986;27;20196;-59
2023/08/08 01:25:45;;;;;;;22.00;21.20;;;;;;;-141.02;100.00;107971.50;5133233;27;20272;-59
2023/08/08 01:28:12;;;;;;;23.50;22.60;;;;;;;-141.02;100.00;107971.50;5132930;27;20188;-60
2023/08/08 01:30:39;;;;;;;21.77;20.95;;;;;;;-141.02;100.00;107971.50;5132871;28;20280;-60
2023/08/08 01:33:07;;;;;;;22.20;21.30;;;;;;;-141.02;100.00;107971.50;5133664;27;20249;-66
2023/08/08 01:35:40;;;;;;;20.02;19.33;;;;;;;-141.02;100.00;107971.50;5137156;27;20192;-64
2023/08/08 01:38:13;;;;;;;19.10;18.40;;;;;;;-141.02;100.00;107971.50;5137384;27;20204;-58
2023/08/08 01:40:41;;;;;;;17.88;17.27;;;;;;;-141.02;100.00;107971.50;5137047;27;20230;-58
2023/08/08 01:43:10;;;;;;;18.95;18.25;;;;;;;-141.02;100.00;107971.50;5136919;27;20192;-58
2023/08/08 01:45:37;;;;;;;17.80;17.20;;;;;;;-141.02;100.00;107971.50;5136922;27;20203;-59
2023/08/08 01:48:08;;;;;;;18.00;17.40;;;;;;;-141.02;100.00;107971.50;5136834;27;20199;-58
2023/08/08 01:50:35;;;;;;;17.30;16.70;;;;;;;-141.02;100.00;107971.50;5136823;27;20200;-58
2023/08/08 01:53:02;;;;;;;17.40;16.80;;;;;;;-141.02;100.00;107971.50;5136812;27;20402;-59
2023/08/08 01:55:29;;;;;;;16.70;16.20;;;;;;;-141.02;100.00;107971.50;5137085;27;20200;-64
2023/08/08 01:57:56;;;;;;;16.23;15.73;;;;;;;-141.02;100.00;107971.50;5136699;27;20670;-66
2023/08/08 02:00:25;;;;;;;16.70;16.20;;;;;;;-141.02;100.00;107971.50;5136794;27;20224;-66
2023/08/08 02:02:52;;;;;;;17.30;16.70;;;;;;;-141.02;100.00;107971.50;5136610;27;20282;-58
2023/08/08 02:05:22;;;;;;;17.00;16.40;;;;;;;-141.02;100.00;107971.50;5136904;27;20246;-59
2023/08/08 02:07:49;;;;;;;16.85;16.25;;;;;;;-141.02;100.00;107971.50;5136533;27;20192;-61
2023/08/08 02:10:16;;;;;;;15.95;15.45;;;;;;;-141.02;100.00;107971.50;5136432;27;20620;-66
2023/08/08 02:12:43;;;;;;;14.20;13.80;;;;;;;-141.02;100.00;107971.50;5136401;27;20287;-63
2023/08/08 02:15:10;;;;;;;16.00;15.50;;;;;;;-141.02;100.00;107971.50;5136680;27;20192;-64
2023/08/08 02:17:40;;;;;;;15.45;14.95;;;;;;;-141.02;100.00;107971.50;5136579;27;20196;-57
2023/08/08 02:20:08;;;;;;;15.60;15.10;;;;;;;-141.02;100.00;107971.50;5136216;27;20326;-62
2023/08/08 02:22:35;;;;;;;16.08;15.57;;;;;;;-141.02;100.00;107971.50;5136237;27;20188;-59
2023/08/08 02:25:03;;;;;;;15.77;15.27;;;;;;;-141.02;100.00;107971.50;5136513;27;20393;-67
2023/08/08 02:27:30;;;;;;;16.20;15.70;;;;;;;-141.02;100.00;107971.50;5136155;27;20239;-66
2023/08/08 02:29:57;;;;;;;17.45;16.85;;;;;;;-141.02;100.00;107971.50;5136014;27;20235;-66
2023/08/08 02:32:24;;;;;;;17.17;16.58;;;;;;;-141.02;100.00;107971.50;5136356;27;20289;-66
2023/08/08 02:34:52;;;;;;;17.67;17.08;;;;;;;-141.02;100.00;107971.50;5135933;27;20598;-66
2023/08/08 02:37:19;;;;;;;17.40;16.80;;;;;;;-141.02;100.00;107971.50;5135963;27;20198;-67
2023/08/08 02:39:46;;;;;;;17.10;16.50;;;;;;;-141.02;100.00;107971.50;5135814;27;20316;-65
2023/08/08 02:42:13;;;;;;;17.63;17.02;;;;;;;-141.02;100.00;107971.50;5136093;27;20636;-59
2023/08/08 02:44:40;;;;;;;17.23;16.63;;;;;;;-141.02;100.00;107971.50;5135200;27;20220;-64
2023/08/08 02:47:07;;;;;;;17.85;17.25;;;;;;;-141.02;100.00;107971.50;5135889;27;20571;-60
2023/08/08 02:49:34;;;;;;;18.00;17.40;;;;;;;-141.02;100.00;107971.50;5136002;27;20279;-62
2023/08/08 02:52:03;;;;;;;18.52;17.83;;;;;;;-141.02;100.00;107971.50;5135893;27;20192;-60
2023/08/08 02:54:30;;;;;;;18.98;18.27;;;;;;;-141.02;100.00;107971.50;5135583;27;20227;-66
2023/08/08 02:57:12;;;;;;;19.33;18.63;;;;;;;-141.02;100.00;107971.50;5135602;27;20287;-59
2023/08/08 02:59:49;;;;;;;18.38;17.67;;;;;;;-141.02;100.00;107971.50;5135503;27;20213;-65
2023/08/08 03:02:16;;;;;;;18.35;17.65;;;;;;;-141.02;100.00;107971.50;5135421;27;20184;-60
2023/08/08 03:04:43;;;;;;;16.88;16.27;;;;;;;-141.02;100.00;107971.50;5135449;27;20291;-60
2023/08/08 03:07:11;;;;;;;17.60;17.00;;;;;;;-141.02;100.00;107971.50;5135407;27;20292;-63
2023/08/08 03:09:44;;;;;;;17.60;17.00;;;;;;;-141.02;100.00;107971.50;5135625;27;20291;-65
2023/08/08 03:12:20;;;;;;;16.98;16.38;;;;;;;-141.02;100.00;107971.50;5135399;27;20199;-65
2023/08/08 03:14:47;;;;;;;14.35;13.93;;;;;;;-141.02;100.00;107971.50;5135224;27;20642;-64
2023/08/08 03:17:14;;;;;;;15.57;15.07;;;;;;;-141.02;100.00;107971.50;5135268;27;20199;-64
2023/08/08 03:19:41;;;;;;;16.25;15.75;;;;;;;-141.02;100.00;107971.50;5135070;27;20308;-67
2023/08/08 03:22:08;;;;;;;16.27;15.77;;;;;;;-141.02;100.00;107971.50;5135476;27;20216;-67
2023/08/08 03:24:36;;;;;;;16.80;16.20;;;;;;;-141.02;100.00;107971.50;5135315;27;20220;-65
2023/08/08 03:27:07;;;;;;;15.98;15.48;;;;;;;-141.02;100.00;107971.50;5135053;27;20279;-66
2023/08/08 03:29:38;;;;;;;15.40;14.90;;;;;;;-141.02;100.00;107971.50;5135016;27;20184;-66
2023/08/08 03:32:06;;;;;;;15.05;14.55;;;;;;;-141.02;100.00;107971.50;5135011;27;20192;-58
2023/08/08 03:34:33;;;;;;;14.80;14.30;;;;;;;-141.02;100.00;107971.50;5135217;27;20290;-58
2023/08/08 03:40:23;;;;;;;14.05;13.65;;;;;;;-141.02;100.00;107971.50;5134905;27;20211;-58
2023/08/08 03:46:38;;;;;;;14.43;14.02;;;;;;;-141.02;100.00;107971.50;5134667;27;20689;-65
2023/08/08 03:49:05;;;;;;;14.20;13.80;;;;;;;-141.02;100.00;107971.50;5134814;27;20235;-67
2023/08/08 03:51:38;;;;;;;14.75;14.25;;;;;;;-141.02;100.00;107971.50;5134919;27;20228;-67
2023/08/08 03:54:35;;;;;;;14.45;14.05;;;;;;;-141.02;100.00;107971.50;5134752;27;20280;-66
2023/08/08 03:57:35;;;;;;;13.35;12.95;;;;;;;-141.02;100.00;107971.50;5134298;27;20224;-58
2023/08/08 04:00:22;;;;;;;13.57;13.18;;;;;;;-141.02;100.00;107971.50;5134409;27;20251;-66
2023/08/08 04:03:08;;;;;;;11.80;11.50;;;;;;;-141.02;100.00;107971.50;5134769;27;20196;-62
2023/08/08 04:09:32;;;;;;;12.82;12.43;;;;;;;-141.02;100.00;107971.50;5134270;27;20195;-67
2023/08/08 04:12:17;;;;;;;12.82;12.43;;;;;;;-141.02;100.00;107971.50;5134275;27;20729;-59
2023/08/08 04:14:46;;;;;;;13.35;12.95;;;;;;;-141.02;100.00;107971.50;5134432;27;20204;-61
2023/08/08 04:17:13;;;;;;;11.60;11.30;;;;;;;-141.02;100.00;107971.50;5134382;27;20192;-66
2023/08/08 04:20:16;;;;;;;11.52;11.23;;;;;;;-141.02;100.00;107971.50;5131030;27;20192;-64
2023/08/08 04:23:42;;;;;;;12.52;12.13;;;;;;;-141.02;100.00;107971.50;5133787;27;20228;-65
2023/08/08 04:26:42;;;;;;;12.10;11.80;;;;;;;-141.02;100.00;107971.50;5134219;27;20219;-66
2023/08/08 04:32:33;;;;;;;12.10;11.80;;;;;;;-141.02;100.00;107971.50;5133879;27;20188;-66
2023/08/08 04:38:21;;;;;;;12.40;12.00;;;;;;;-141.02;100.00;107971.50;5133774;27;20244;-66
2023/08/08 04:40:53;;;;;;;11.68;11.38;;;;;;;-141.02;100.00;107971.50;5133863;27;20307;-64
2023/08/08 04:43:21;;;;;;;11.73;11.43;;;;;;;-141.02;100.00;107971.50;5134223;27;20196;-62
2023/08/08 04:49:57;;;;;;;10.57;10.27;;;;;;;-141.02;100.00;107971.50;5133542;27;20241;-63
2023/08/08 04:52:43;;;;;;;9.90;9.60;;;;;;;-141.02;100.00;107971.50;5133771;27;20200;-64
2023/08/08 04:55:36;;;;;;;9.50;9.20;;;;;;;-141.02;100.00;107971.50;5133314;27;20288;-66
2023/08/08 04:58:23;;;;;;;9.93;9.63;;;;;;;-141.02;100.00;107971.50;5133358;27;20199;-64
2023/08/08 05:00:50;;;;;;;9.10;8.90;;;;;;;-141.02;100.00;107971.50;5133240;27;20263;-67
2023/08/08 05:03:17;;;;;;;8.60;8.40;;;;;;;-141.02;100.00;107971.50;5133271;27;20207;-67
2023/08/08 05:05:45;;;;;;;8.32;8.13;;;;;;;-141.02;100.00;107971.50;5133548;27;20196;-66
2023/08/08 05:08:14;;;;;;;8.75;8.55;;;;;;;-141.02;100.00;107971.50;5132697;27;20678;-66
2023/08/08 05:10:41;;;;;;;10.45;10.15;;;;;;;-141.02;100.00;107971.50;5133426;27;20196;-67
2023/08/08 05:13:08;;;;;;;10.27;9.98;;;;;;;-141.02;100.00;107971.50;5133119;27;20284;-62
2023/08/08 05:15:35;;;;;;;11.30;11.00;;;;;;;-141.02;100.00;107971.50;5133338;27;20197;-68
2023/08/08 05:18:02;;;;;;;13.75;13.35;;;;;;;-141.02;100.00;107971.50;5133463;27;20224;-62
2023/08/08 05:20:29;;;;;;;16.67;16.08;;;;;;;-141.02;100.00;107971.50;5133040;27;20308;-65
2023/08/08 05:22:56;;;;;;;19.13;18.33;;;;;;;-141.02;100.00;107971.50;5133315;27;20188;-62
2023/08/08 05:25:25;;;;;;;18.90;18.10;;;;;;;-141.02;100.00;107971.50;5133381;27;20279;-62
2023/08/08 05:27:53;;;;;;;18.70;18.00;;;;;;;-141.02;100.00;107971.50;5132907;28;20193;-66
2023/08/08 05:30:20;;;;;;;19.15;18.45;;;;;;;-141.02;100.00;107971.50;5132985;28;20200;-65
2023/08/08 05:32:47;;;;;;;17.90;17.20;;;;;;;-141.02;100.00;107971.50;5132861;28;20231;-66
2023/08/08 05:35:14;;;;;;;18.75;18.05;;;;;;;-141.02;100.00;107971.50;5133197;28;20227;-67
2023/08/08 05:37:41;;;;;;;18.40;17.70;;;;;;;-141.02;100.00;107971.50;5133215;28;20238;-64
2023/08/08 05:40:10;;;;;;;17.00;16.40;;;;;;;-141.02;100.00;107971.50;5133699;27;20196;-67
2023/08/08 05:42:38;;;;;;;16.08;15.57;;;;;;;-141.02;100.00;107971.50;5132788;28;20294;-64
2023/08/08 05:45:07;;;;;;;16.20;15.60;;;;;;;-141.02;100.00;107971.50;5133023;28;20581;-66
2023/08/08 05:47:34;;;;;;;17.10;16.50;;;;;;;-141.02;100.00;107971.50;5132786;28;20279;-66
2023/08/08 05:50:02;;;;;;;15.55;15.05;;;;;;;-141.02;100.00;107971.50;5132926;28;20228;-67
2023/08/08 05:52:28;;;;;;;13.20;12.80;;;;;;;-141.02;100.00;107971.50;5133195;28;20188;-66
2023/08/08 05:54:55;;;;;;;12.63;12.23;;;;;;;-141.02;100.00;107971.50;5132730;28;20202;-63
2023/08/08 05:57:22;;;;;;;15.65;15.05;;;;;;;-141.02;100.00;107971.50;5132588;28;20231;-66
2023/08/08 05:59:51;;;;;;;17.10;16.40;;;;;;;-141.02;100.00;107971.50;5133531;28;20520;-61
2023/08/08 06:02:18;;;;;;;18.15;17.35;;;;;;;-141.02;100.00;107971.50;5132840;28;20255;-62
2023/08/08 06:04:45;;;;;;;19.77;18.88;;;;;;;-141.02;100.00;107969.53;5133219;27;20192;-67
2023/08/08 06:07:12;;;;;;;19.42;18.52;;;;;;;-141.02;100.00;107218.31;5132887;28;20283;-61
2023/08/08 06:09:39;;;;;;;19.70;18.80;;;;;;;-141.02;100.00;105966.59;5132848;28;20272;-63
2023/08/08 06:12:07;;;;;;;18.40;17.60;;;;;;;-141.02;100.00;106717.56;5132909;28;20204;-66
2023/08/08 06:14:34;;;;;;;16.98;16.27;;;;;;;-141.02;100.00;105966.59;5132471;28;20690;-62
2023/08/08 06:17:03;;;;;;;16.80;16.10;;;;;;;-141.02;100.00;105716.31;5132523;28;20193;-67
2023/08/08 06:19:30;;;;;;;15.48;14.88;;;;;;;-141.02;100.00;104965.56;5133496;27;20196;-59
2023/08/08 06:21:57;;;;;;;16.05;15.30;;;;;;;-141.02;100.00;103214.44;5136056;27;20744;-69
2023/08/08 06:24:24;;;;;;;16.55;15.75;;;;;;;-141.02;100.00;101964.16;5136301;27;20200;-68
2023/08/08 06:26:51;;;;;;;17.40;16.60;;;;;;;-141.02;100.00;101214.22;5136242;27;20195;-63
2023/08/08 06:29:18;;;;;;;18.00;17.10;;;;;;;-141.02;100.00;98715.56;5136406;27;20253;-59
2023/08/08 06:31:45;;;;;;;18.05;17.05;;;;;;;-141.02;100.00;96468.31;5136063;27;20283;-65
2023/08/08 06:34:15;;;;;;;18.30;17.20;;;;;;;-141.02;100.00;94222.50;5136128;27;20287;-68
2023/08/08 06:36:42;;;;;;;17.42;16.42;;;;;;;-141.02;100.00;93224.84;5136317;27;20196;-70
2023/08/08 06:39:11;;;;;;;17.27;16.38;;;;;;;-141.02;100.00;94222.50;5136292;27;20250;-70
2023/08/08 06:41:38;;;;;;;17.10;16.10;;;;;;;-141.02;100.00;93723.63;5135827;27;20781;-69
2023/08/08 06:44:05;;;;;;;17.88;16.67;;;;;;;-141.02;100.00;91978.16;5135848;27;20192;-70
2023/08/08 06:46:32;;;;;;;17.42;16.33;;;;;;;-141.02;100.00;90981.13;5136573;27;20224;-70
2023/08/08 06:49:01;;;;;;;18.42;17.33;;;;;;;-141.02;100.00;91978.16;5136056;27;20224;-70
2023/08/08 06:51:29;;;;;;;17.65;16.45;;;;;;;-141.02;100.00;90482.72;5136069;27;20193;-60
2023/08/08 06:53:56;;;;;;;18.15;16.83;;;;;;;-141.02;100.00;87742.81;5135772;27;20661;-69
2023/08/08 06:56:23;;;;;;;17.75;16.45;;;;;;;-141.02;100.00;87742.81;5135964;27;20245;-66
2023/08/08 06:58:50;;;;;;;18.55;17.05;;;;;;;-141.02;100.00;84507.50;5135955;27;20615;-71
2023/08/08 07:01:17;;;;;;;18.30;16.90;;;;;;;-141.02;100.00;84258.75;5135832;27;20314;-70
2023/08/08 07:03:44;;;;;;;18.27;16.88;;;;;;;-141.02;100.00;83263.97;5136668;27;20247;-69
2023/08/08 07:06:12;;;;;;;18.20;16.80;;;;;;;-141.02;100.00;83761.31;5135554;27;20234;-60
2023/08/08 07:08:40;;;;;;;18.35;16.95;;;;;;;-141.02;100.00;83761.31;5135456;27;20256;-62
2023/08/08 07:11:07;;;;;;;18.67;17.27;;;;;;;-141.02;100.00;81523.75;5135761;27;20273;-71
2023/08/08 07:13:34;;;;;;;18.73;17.23;;;;;;;-141.02;100.00;79784.44;5135686;27;20253;-68
2023/08/08 07:16:01;;;;;;;18.70;17.30;;;;;;;-141.02;100.00;80529.75;5135630;27;20218;-67
2023/08/08 07:18:28;;;;;;;18.75;17.25;;;;;;;-141.02;100.00;78542.63;5135605;27;20198;-67
2023/08/08 07:20:56;;;;;;;19.35;17.75;;;;;;;-141.02;99.36;75315.94;5134924;27;20305;-67
2023/08/08 07:23:23;;;;;;;19.50;17.90;;;;;;;-141.02;100.00;76308.44;5135239;27;20556;-63
2023/08/08 07:25:52;;;;;;;19.80;18.10;;;;;;;-141.02;100.00;76060.28;5135068;27;20688;-63
2023/08/08 07:28:19;;;;;;;19.65;17.95;;;;;;;-141.02;100.00;75067.88;5135043;27;20554;-60
2023/08/08 07:30:46;;;;;;;19.00;17.40;;;;;;;-141.02;100.00;77797.72;5134821;27;20195;-65
2023/08/08 07:33:14;;;;;;;19.80;18.20;;;;;;;-141.02;100.00;76060.28;5135011;27;20279;-67
2023/08/08 07:35:41;;;;;;;19.85;18.10;;;;;;;-141.02;97.65;74075.72;5134922;27;20227;-65
2023/08/08 07:38:08;;;;;;;20.95;19.05;;;;;;;-141.02;93.17;70357.75;5134813;27;20228;-64
2023/08/08 07:40:35;;;;;;;21.35;19.45;;;;;;;-141.02;89.59;68376.50;5134810;27;20239;-68
2023/08/08 07:43:04;;;;;;;20.70;18.80;;;;;;;-141.02;89.50;67386.28;5135050;27;20211;-67
2023/08/08 07:45:31;;;;;;;21.25;19.35;;;;;;;-141.02;95.94;69366.97;5134766;27;20283;-65
2023/08/08 07:47:58;;;;;;;20.88;18.98;;;;;;;-141.02;94.00;67386.28;5134571;27;20673;-64
2023/08/08 07:50:26;;;;;;;21.08;19.08;;;;;;;-141.02;93.79;65654.13;5134985;27;20224;-59
2023/08/08 07:52:53;;;;;;;21.40;19.40;;;;;;;-141.02;97.53;67881.38;5134895;27;20254;-66
2023/08/08 07:55:20;;;;;;;20.77;18.88;;;;;;;-141.02;91.95;65406.75;5134513;27;20224;-67
2023/08/08 07:57:47;;;;;;;21.00;19.10;;;;;;;-141.02;94.09;64170.13;5134788;27;20231;-68
2023/08/08 08:00:18;;;;;;;21.27;19.30;;;;;;;-141.02;92.18;64912.06;5134674;27;20223;-59
2023/08/08 08:02:46;;;;;;;20.42;18.63;;;;;;;-141.02;91.10;65159.41;5134345;27;20219;-65
2023/08/08 08:05:14;;;;;;;21.25;19.35;;;;;;;-141.02;89.44;66148.94;5134559;27;20218;-64
2023/08/08 08:07:42;;;;;;;22.08;20.17;;;;;;;-141.02;84.15;64417.41;5134658;27;20192;-59
2023/08/08 08:10:13;;;;;;;21.63;19.63;;;;;;;-141.02;81.80;64170.13;5134228;27;20196;-59
2023/08/08 08:12:41;;;;;;;21.58;19.58;;;;;;;-141.02;80.04;58981.19;5134576;27;20559;-65
2023/08/08 08:15:09;;;;;;;21.27;19.38;;;;;;;-141.02;87.36;62686.75;5134450;27;20188;-67
2023/08/08 08:17:38;;;;;;;22.20;20.23;;;;;;;-141.02;83.83;61204.03;5134016;27;20282;-65
2023/08/08 08:20:10;;;;;;;21.70;19.70;;;;;;;-141.02;81.81;56910.13;5134406;27;20273;-63
2023/08/08 08:22:38;;;;;;;21.55;19.65;;;;;;;-141.02;84.72;58981.19;5133679;27;20721;-69
2023/08/08 08:25:07;;;;;;;21.27;19.38;;;;;;;-141.02;84.57;55776.78;5134271;27;20228;-66
2023/08/08 08:27:34;;;;;;;21.20;19.40;;;;;;;-141.02;87.86;60215.94;5134207;27;20188;-65
2023/08/08 08:30:01;;;;;;;20.73;18.92;;;;;;;-141.02;84.81;59228.09;5133837;27;20578;-65
2023/08/08 08:32:29;;;;;;;20.52;18.73;;;;;;;-141.02;86.10;56975.69;5134044;27;20275;-68
2023/08/08 08:34:57;;;;;;;20.75;18.88;;;;;;;-141.02;85.30;58223.19;5133695;27;20689;-59
2023/08/08 08:37:24;;;;;;;20.40;18.60;;;;;;;-141.02;86.27;59475.03;5134023;27;20337;-68
2023/08/08 08:39:52;;;;;;;20.73;18.92;;;;;;;-141.02;83.83;60215.94;5133652;27;20279;-68
2023/08/08 08:42:19;;;;;;;20.90;19.10;;;;;;;-141.02;82.14;54035.13;5133460;27;20266;-68
2023/08/08 08:44:49;;;;;;;20.92;19.08;;;;;;;-141.02;82.33;53118.41;5133454;27;20192;-69
2023/08/08 08:47:20;;;;;;;20.40;18.60;;;;;;;-141.02;83.36;52662.06;5133881;27;20192;-70
2023/08/08 08:49:48;;;;;;;20.42;18.70;;;;;;;-141.02;85.47;54801.81;5133916;27;20246;-68
2023/08/08 08:52:17;;;;;;;19.80;18.20;;;;;;;-141.02;84.19;53611.41;5133687;27;20275;-68
2023/08/08 08:54:44;;;;;;;20.50;18.80;;;;;;;-141.02;83.99;53827.13;5133737;27;20196;-63
2023/08/08 08:57:11;;;;;;;20.15;18.45;;;;;;;-141.02;80.89;50887.38;5133621;27;20220;-71
2023/08/08 08:59:38;;;;;;;19.83;18.23;;;;;;;-141.02;83.23;52078.75;5133968;27;20197;-61
2023/08/08 09:02:06;;;;;;;19.83;18.13;;;;;;;-141.02;81.58;51701.47;5133539;27;20307;-68
2023/08/08 09:04:35;;;;;;;19.13;17.52;;;;;;;-141.02;86.91;52613.94;5133214;27;20283;-62
2023/08/08 09:07:03;;;;;;;19.27;17.67;;;;;;;-141.02;84.56;54185.38;5133299;27;20198;-71
2023/08/08 09:09:34;;;;;;;19.95;18.35;;;;;;;-141.02;81.74;54848.06;5133169;27;20283;-67
2023/08/08 09:12:04;;;;;;;19.55;17.95;;;;;;;-141.02;80.34;54131.44;5133555;27;20245;-61
2023/08/08 09:14:32;;;;;;;19.58;18.08;;;;;;;-141.02;80.02;51888.19;5133509;27;20552;-73
2023/08/08 09:16:59;;;;;;;19.85;18.25;;;;;;;-141.02;82.37;52525.38;5133404;27;20223;-65
2023/08/08 09:19:26;;;;;;;20.00;18.40;;;;;;;-141.02;80.54;51601.38;5133326;27;20188;-61
2023/08/08 09:21:54;;;;;;;19.13;17.63;;;;;;;-141.02;80.79;51992.13;5132923;27;20318;-73
2023/08/08 09:24:21;;;;;;;19.23;17.73;;;;;;;-141.02;82.29;50300.50;5133058;27;20200;-66
2023/08/08 09:26:49;;;;;;;19.38;17.88;;;;;;;-141.02;83.12;49613.69;5132893;28;20196;-63
2023/08/08 09:29:17;;;;;;;18.85;17.45;;;;;;;-141.02;87.42;50598.75;5133005;28;20671;-66
2023/08/08 09:31:47;;;;;;;19.10;17.70;;;;;;;-141.02;85.20;50323.59;5133199;28;20192;-60
2023/08/08 09:34:14;;;;;;;18.75;17.35;;;;;;;-141.02;84.78;51509.00;5132990;27;20311;-71
2023/08/08 09:36:41;;;;;;;18.75;17.35;;;;;;;-141.02;83.91;51412.75;5133182;28;20251;-63
2023/08/08 09:39:12;;;;;;;19.20;17.80;;;;;;;-141.02;83.77;50604.50;5133253;27;20261;-71
2023/08/08 09:41:40;;;;;;;19.05;17.65;;;;;;;-141.02;86.09;51166.41;5133193;27;20330;-59
2023/08/08 09:44:09;;;;;;;19.02;17.63;;;;;;;-141.02;81.87;48934.75;5133261;28;20228;-70
2023/08/08 09:46:36;;;;;;;18.83;17.42;;;;;;;-141.02;85.35;48869.34;5133242;27;20196;-60
2023/08/08 09:49:04;;;;;;;19.35;18.15;;;;;;;-141.02;86.56;49150.16;5133092;28;20231;-68
2023/08/08 09:51:33;;;;;;;18.45;17.15;;;;;;;-141.02;86.84;49140.53;5133139;28;20192;-77
2023/08/08 09:54:01;;;;;;;18.15;16.95;;;;;;;-141.02;88.17;50596.81;5133011;27;20203;-60
2023/08/08 09:56:29;;;;;;;18.50;17.30;;;;;;;-141.02;86.78;53418.81;5136849;27;20242;-69
2023/08/08 09:58:59;;;;;;;18.30;17.08;;;;;;;-141.02;83.41;51686.06;5136945;27;20249;-63
2023/08/08 10:01:28;;;;;;;18.83;17.52;;;;;;;-141.02;82.52;50400.56;5136804;27;20288;-69
2023/08/08 10:03:55;;;;;;;18.50;17.20;;;;;;;-141.02;83.00;50369.78;5136986;27;20666;-78
2023/08/08 10:06:22;;;;;;;18.73;17.42;;;;;;;-141.02;83.56;51085.59;5136805;27;20662;-75
2023/08/08 10:08:50;;;;;;;18.40;17.10;;;;;;;-141.02;81.72;50204.31;5136668;27;20228;-62
2023/08/08 10:11:19;;;;;;;18.30;17.10;;;;;;;-141.02;82.58;50527.53;5136560;27;20203;-69
2023/08/08 10:13:50;;;;;;;18.30;17.10;;;;;;;-141.02;81.27;50027.31;5136574;27;20196;-65
2023/08/08 10:16:18;;;;;;;18.17;16.98;;;;;;;-141.02;80.99;52163.44;5136531;27;20694;-61
2023/08/08 10:18:56;;;;;;;18.40;17.20;;;;;;;-141.02;79.08;52171.16;5136372;27;20635;-62
2023/08/08 10:21:24;;;;;;;18.67;17.48;;;;;;;-141.02;76.71;50843.13;5136198;27;20731;-61
2023/08/08 10:24:02;;;;;;;18.92;17.63;;;;;;;-141.02;76.69;49665.63;5136907;27;20227;-73
2023/08/08 10:26:29;;;;;;;18.45;17.25;;;;;;;-141.02;78.12;49223.22;5136279;27;20666;-71
2023/08/08 10:28:58;;;;;;;18.73;17.52;;;;;;;-141.02;78.89;48923.19;5136487;27;20224;-73
2023/08/08 10:31:25;;;;;;;18.42;17.23;;;;;;;-141.02;80.05;49269.41;5136600;27;20230;-75
2023/08/08 10:34:02;;;;;;;18.90;17.60;;;;;;;-141.02;80.32;50693.03;5136428;27;20275;-66
2023/08/08 10:36:45;;;;;;;18.67;17.48;;;;;;;-141.02;76.32;49023.22;5136212;27;20730;-75
2023/08/08 10:39:16;;;;;;;19.13;17.92;;;;;;;-141.02;77.97;50285.09;5136464;27;20189;-64
2023/08/08 10:41:47;;;;;;;19.05;17.85;;;;;;;-141.02;75.78;48811.66;5136253;27;20188;-66
2023/08/08 10:44:15;;;;;;;19.35;18.25;;;;;;;-141.02;77.74;48575.13;5135978;27;20189;-74
2023/08/08 10:46:46;;;;;;;19.00;17.90;;;;;;;-141.02;77.99;49657.94;5135913;27;20197;-71
2023/08/08 10:49:16;;;;;;;18.80;17.70;;;;;;;-141.02;78.88;49315.56;5136166;27;20224;-65
2023/08/08 10:51:46;;;;;;;19.20;18.10;;;;;;;-141.02;77.48;48607.81;5136160;27;20626;-72
2023/08/08 10:54:15;;;;;;;19.15;18.05;;;;;;;-141.02;77.55;47117.78;5136032;27;20934;-63
2023/08/08 10:56:48;;;;;;;19.08;17.98;;;;;;;-141.02;77.98;47044.72;5135980;27;20253;-69
2023/08/08 10:59:17;;;;;;;19.02;17.92;;;;;;;-141.02;76.82;47062.03;5135910;27;20267;-66
2023/08/08 11:01:47;;;;;;;18.33;17.33;;;;;;;-141.02;77.98;47757.94;5135496;27;20223;-68
2023/08/08 11:04:16;;;;;;;18.75;17.75;;;;;;;-141.02;75.81;47692.56;5135844;27;20196;-71
2023/08/08 11:06:44;;;;;;;18.92;17.88;;;;;;;-141.02;76.81;47315.78;5134530;27;20687;-61
2023/08/08 11:09:11;;;;;;;18.85;17.85;;;;;;;-141.02;79.07;47915.59;5135806;27;20287;-64
2023/08/08 11:11:39;;;;;;;19.17;18.10;;;;;;;-141.02;78.62;48427.03;5135885;27;20195;-63
2023/08/08 11:14:13;;;;;;;19.13;18.13;;;;;;;-141.02;77.74;47765.63;5135676;27;20201;-61
2023/08/08 11:16:41;;;;;;;19.00;18.00;;;;;;;-141.02;77.86;46643.03;5136228;27;20263;-70
2023/08/08 11:19:08;;;;;;;18.90;17.90;;;;;;;-141.02;79.71;46915.94;5135331;27;20275;-68
2023/08/08 11:21:38;;;;;;;19.10;18.10;;;;;;;-141.02;78.29;47269.63;5135045;27;20228;-61
2023/08/08 11:24:07;;;;;;;19.30;18.30;;;;;;;-141.02;75.91;46650.72;5135413;27;20227;-67